Time,TemperatureF,DewpointF,PressureIn,WindDirection,WindDirectionDegrees,WindSpeedMPH,WindSpeedGustMPH,Humidity,HourlyPrecipIn,Conditions,Clouds,dailyrainin,SoftwareType,DateUTC
2013-10-13 00:00:00,53.5,44.7,30.22,SW,231,0.0,0.0,72,0.00,,OVC018,0.00,VWS V14.01,2013-10-13 05:00:00,
2013-10-13 00:02:00,53.1,43.6,30.22,SW,230,0.0,0.0,70,0.00,,CLR,0.00,VWS V14.01,2013-10-13 05:02:00,
2013-10-13 00:07:00,52.8,43.7,30.22,SW,231,0.0,0.0,71,0.00,,CLR,0.00,VWS V14.01,2013-10-13 05:07:00,
2013-10-13 00:10:00,52.7,43.9,30.22,SW,231,0.0,0.0,72,0.00,,OVC018,0.00,VWS V14.01,2013-10-13 05:10:00,
2013-10-13 00:12:00,52.4,43.7,30.23,SW,231,0.0,0.0,72,0.00,,CLR,0.00,VWS V14.01,2013-10-13 05:12:00,
2013-10-13 00:17:00,52.1,42.6,30.23,SW,231,0.0,0.0,70,0.00,,CLR,0.00,VWS V14.01,2013-10-13 05:17:00,
2013-10-13 00:20:00,52.1,42.6,30.23,SW,231,0.0,0.0,70,0.00,,OVC018,0.00,VWS V14.01,2013-10-13 05:20:00,
2013-10-13 00:22:00,52.0,42.2,30.23,SW,230,0.0,0.0,69,0.00,,CLR,0.00,VWS V14.01,2013-10-13 05:22:00,
2013-10-13 00:27:00,51.9,42.4,30.23,SW,231,0.0,0.0,70,0.00,,CLR,0.00,VWS V14.01,2013-10-13 05:27:00,
2013-10-13 00:30:00,51.8,42.3,30.23,SW,230,0.0,0.0,70,0.00,,OVC018,0.00,VWS V14.01,2013-10-13 05:30:00,
2013-10-13 00:32:00,51.7,42.2,30.23,SW,231,0.0,0.0,70,0.00,,CLR,0.00,VWS V14.01,2013-10-13 05:32:00,
2013-10-13 00:37:00,51.7,43.3,30.23,SW,231,0.0,0.0,73,0.00,,CLR,0.00,VWS V14.01,2013-10-13 05:37:00,
2013-10-13 00:40:00,51.7,43.3,30.23,SW,231,0.0,0.0,73,0.00,,OVC018,0.00,VWS V14.01,2013-10-13 05:40:00,
2013-10-13 00:42:00,51.6,43.2,30.23,SW,230,0.0,0.0,73,0.00,,CLR,0.00,VWS V14.01,2013-10-13 05:42:00,
2013-10-13 00:47:00,51.3,43.3,30.24,SW,231,0.0,0.0,74,0.00,,CLR,0.00,VWS V14.01,2013-10-13 05:47:00,
2013-10-13 00:50:00,51.3,43.0,30.24,SW,230,0.0,0.0,73,0.00,,OVC018,0.00,VWS V14.01,2013-10-13 05:50:00,
2013-10-13 00:52:00,51.0,42.7,30.24,SW,231,0.0,0.0,73,0.00,,CLR,0.00,VWS V14.01,2013-10-13 05:52:00,
2013-10-13 00:57:00,50.7,42.4,30.24,SW,231,0.0,0.0,73,0.00,,CLR,0.00,VWS V14.01,2013-10-13 05:57:00,
2013-10-13 01:00:00,50.7,42.7,30.24,SW,231,0.0,0.0,74,0.00,,OVC018,0.00,VWS V14.01,2013-10-13 06:00:00,
2013-10-13 01:02:00,50.6,43.0,30.24,SW,231,0.0,0.0,75,0.00,,CLR,0.00,VWS V14.01,2013-10-13 06:02:00,
2013-10-13 01:07:00,50.6,42.6,30.24,SW,231,0.0,0.0,74,0.00,,CLR,0.00,VWS V14.01,2013-10-13 06:07:00,
2013-10-13 01:10:00,50.7,42.7,30.24,SW,231,0.0,0.0,74,0.00,,OVC018,0.00,VWS V14.01,2013-10-13 06:10:00,
2013-10-13 01:12:00,51.0,41.9,30.24,SW,231,0.0,0.0,71,0.00,,CLR,0.00,VWS V14.01,2013-10-13 06:12:00,
2013-10-13 01:17:00,51.5,42.0,30.24,SW,231,0.0,0.0,70,0.00,,CLR,0.00,VWS V14.01,2013-10-13 06:17:00,
2013-10-13 01:20:00,51.5,42.0,30.24,SW,231,0.0,0.0,70,0.00,,OVC018,0.00,VWS V14.01,2013-10-13 06:20:00,
2013-10-13 01:22:00,51.7,41.5,30.24,SW,231,0.0,0.0,68,0.00,,CLR,0.00,VWS V14.01,2013-10-13 06:22:00,
2013-10-13 01:27:00,51.7,41.9,30.24,SW,230,0.0,0.0,69,0.00,,CLR,0.00,VWS V14.01,2013-10-13 06:27:00,
2013-10-13 01:30:00,51.7,41.9,30.24,SW,231,0.0,0.0,69,0.00,,OVC018,0.00,VWS V14.01,2013-10-13 06:30:00,
2013-10-13 01:32:00,51.6,41.8,30.24,SW,231,0.0,0.0,69,0.00,,CLR,0.00,VWS V14.01,2013-10-13 06:32:00,
2013-10-13 01:38:00,51.3,42.6,30.24,SW,231,0.0,0.0,72,0.00,,CLR,0.00,VWS V14.01,2013-10-13 06:38:00,
2013-10-13 01:40:00,51.3,42.6,30.24,SW,231,0.0,0.0,72,0.00,,OVC018,0.00,VWS V14.01,2013-10-13 06:40:00,
2013-10-13 01:43:00,50.9,41.8,30.24,SW,230,0.0,0.0,71,0.00,,CLR,0.00,VWS V14.01,2013-10-13 06:43:00,
2013-10-13 01:48:00,50.6,42.3,30.25,SW,231,0.0,0.0,73,0.00,,CLR,0.00,VWS V14.01,2013-10-13 06:48:00,
2013-10-13 01:50:00,50.6,42.3,30.25,SW,231,0.0,0.0,73,0.00,,OVC018,0.00,VWS V14.01,2013-10-13 06:50:00,
2013-10-13 01:53:00,50.3,42.3,30.25,SW,231,0.0,0.0,74,0.00,,CLR,0.00,VWS V14.01,2013-10-13 06:53:00,
2013-10-13 01:58:00,50.0,42.7,30.25,SW,231,0.0,0.0,76,0.00,,CLR,0.00,VWS V14.01,2013-10-13 06:58:00,
2013-10-13 02:00:00,50.1,42.8,30.25,SW,230,0.0,0.0,76,0.00,,OVC018,0.00,VWS V14.01,2013-10-13 07:00:00,
2013-10-13 02:03:00,49.9,43.7,30.25,SW,231,0.0,0.0,79,0.00,,CLR,0.00,VWS V14.01,2013-10-13 07:03:00,
2013-10-13 02:08:00,49.4,43.5,30.25,SW,231,0.0,0.0,80,0.00,,CLR,0.00,VWS V14.01,2013-10-13 07:08:00,
2013-10-13 02:10:00,49.4,43.5,30.25,SW,231,0.0,0.0,80,0.00,,OVC018,0.00,VWS V14.01,2013-10-13 07:10:00,
2013-10-13 02:13:00,48.9,43.0,30.26,SW,231,0.0,0.0,80,0.00,,CLR,0.00,VWS V14.01,2013-10-13 07:13:00,
2013-10-13 02:18:00,48.5,42.6,30.26,SW,231,0.0,0.0,80,0.00,,CLR,0.00,VWS V14.01,2013-10-13 07:18:00,
2013-10-13 02:20:00,48.5,42.6,30.26,SW,231,0.0,0.0,80,0.00,,OVC018,0.00,VWS V14.01,2013-10-13 07:20:00,
2013-10-13 02:23:00,48.3,42.4,30.26,SW,231,0.0,0.0,80,0.00,,CLR,0.00,VWS V14.01,2013-10-13 07:23:00,
2013-10-13 02:28:00,48.0,41.8,30.26,SW,231,0.0,0.0,79,0.00,,CLR,0.00,VWS V14.01,2013-10-13 07:28:00,
2013-10-13 02:30:00,48.0,41.8,30.26,SW,231,0.0,0.0,79,0.00,,OVC018,0.00,VWS V14.01,2013-10-13 07:30:00,
2013-10-13 02:33:00,48.0,42.1,30.26,SW,231,0.0,0.0,80,0.00,,CLR,0.00,VWS V14.01,2013-10-13 07:33:00,
2013-10-13 02:38:00,48.1,41.9,30.27,SW,231,0.0,0.0,79,0.00,,CLR,0.00,VWS V14.01,2013-10-13 07:38:00,
2013-10-13 02:40:00,48.0,41.8,30.27,SW,231,0.0,0.0,79,0.00,,OVC018,0.00,VWS V14.01,2013-10-13 07:40:00,
2013-10-13 02:43:00,48.1,41.2,30.27,SW,231,0.0,0.0,77,0.00,,CLR,0.00,VWS V14.01,2013-10-13 07:43:00,
2013-10-13 02:48:00,48.3,41.4,30.27,SW,231,0.0,0.0,77,0.00,,CLR,0.00,VWS V14.01,2013-10-13 07:48:00,
2013-10-13 02:50:00,48.2,41.3,30.27,SW,231,0.0,0.0,77,0.00,,OVC018,0.00,VWS V14.01,2013-10-13 07:50:00,
2013-10-13 02:53:00,48.6,42.7,30.27,SW,231,0.0,0.0,80,0.00,,CLR,0.00,VWS V14.01,2013-10-13 07:53:00,
2013-10-13 02:58:00,48.5,42.6,30.27,SW,231,0.0,0.0,80,0.00,,CLR,0.00,VWS V14.01,2013-10-13 07:58:00,
2013-10-13 03:00:00,48.6,42.7,30.27,SW,231,0.0,0.0,80,0.00,,OVC018,0.00,VWS V14.01,2013-10-13 08:00:00,
2013-10-13 03:03:00,48.5,42.6,30.27,SW,231,0.0,0.0,80,0.00,,CLR,0.00,VWS V14.01,2013-10-13 08:03:00,
2013-10-13 03:09:00,48.4,42.5,30.27,SW,231,0.0,0.0,80,0.00,,CLR,0.00,VWS V14.01,2013-10-13 08:09:00,
2013-10-13 03:10:00,48.4,42.2,30.27,SW,231,0.0,0.0,79,0.00,,OVC018,0.00,VWS V14.01,2013-10-13 08:10:00,
2013-10-13 03:14:00,48.5,43.0,30.27,SW,231,0.0,0.0,81,0.00,,CLR,0.00,VWS V14.01,2013-10-13 08:14:00,
2013-10-13 03:19:00,48.5,43.3,30.28,SW,231,0.0,0.0,82,0.00,,CLR,0.00,VWS V14.01,2013-10-13 08:19:00,
2013-10-13 03:20:00,48.5,43.3,30.28,SW,231,0.0,0.0,82,0.00,,OVC018,0.00,VWS V14.01,2013-10-13 08:20:00,
2013-10-13 03:24:00,48.2,42.7,30.28,SW,231,0.0,0.0,81,0.00,,CLR,0.00,VWS V14.01,2013-10-13 08:24:00,
2013-10-13 03:29:00,48.3,43.1,30.28,SW,231,0.0,0.0,82,0.00,,CLR,0.00,VWS V14.01,2013-10-13 08:29:00,
2013-10-13 03:30:00,48.3,43.1,30.28,SW,231,0.0,0.0,82,0.00,,OVC018,0.00,VWS V14.01,2013-10-13 08:30:00,
2013-10-13 03:34:00,48.1,42.9,30.28,SW,231,0.0,0.0,82,0.00,,CLR,0.00,VWS V14.01,2013-10-13 08:34:00,
2013-10-13 03:39:00,47.8,42.6,30.28,SW,231,0.0,0.0,82,0.00,,CLR,0.00,VWS V14.01,2013-10-13 08:39:00,
2013-10-13 03:40:00,47.9,42.7,30.28,SW,230,0.0,0.0,82,0.00,,OVC018,0.00,VWS V14.01,2013-10-13 08:40:00,
2013-10-13 03:44:00,47.5,42.6,30.28,SW,231,0.0,0.0,83,0.00,,CLR,0.00,VWS V14.01,2013-10-13 08:44:00,
2013-10-13 03:49:00,47.3,42.4,30.29,SW,230,0.0,0.0,83,0.00,,CLR,0.00,VWS V14.01,2013-10-13 08:49:00,
2013-10-13 03:50:00,47.3,42.4,30.29,SW,231,0.0,0.0,83,0.00,,OVC018,0.00,VWS V14.01,2013-10-13 08:50:00,
2013-10-13 03:54:00,47.3,42.7,30.29,SW,231,0.0,0.0,84,0.00,,CLR,0.00,VWS V14.01,2013-10-13 08:54:00,
2013-10-13 03:59:00,47.4,43.4,30.30,SW,231,0.0,0.0,86,0.00,,CLR,0.00,VWS V14.01,2013-10-13 08:59:00,
2013-10-13 04:00:00,47.4,43.1,30.30,SW,231,0.0,0.0,85,0.00,,OVC018,0.00,VWS V14.01,2013-10-13 09:00:00,
2013-10-13 04:04:00,47.3,43.3,30.30,SW,231,0.0,0.0,86,0.00,,CLR,0.00,VWS V14.01,2013-10-13 09:04:00,
2013-10-13 04:09:00,47.2,42.9,30.30,SW,231,0.0,0.0,85,0.00,,CLR,0.00,VWS V14.01,2013-10-13 09:09:00,
2013-10-13 04:10:00,47.3,43.3,30.30,SW,230,0.0,0.0,86,0.00,,OVC018,0.00,VWS V14.01,2013-10-13 09:10:00,
2013-10-13 04:14:00,47.0,42.7,30.30,SW,230,0.0,0.0,85,0.00,,CLR,0.00,VWS V14.01,2013-10-13 09:14:00,
2013-10-13 04:19:00,46.9,42.6,30.30,SW,230,0.0,0.0,85,0.00,,CLR,0.00,VWS V14.01,2013-10-13 09:19:00,
2013-10-13 04:20:00,46.9,42.6,30.30,SW,231,0.0,0.0,85,0.00,,OVC018,0.00,VWS V14.01,2013-10-13 09:20:00,
2013-10-13 04:24:00,46.9,42.3,30.30,SW,231,0.0,0.0,84,0.00,,CLR,0.00,VWS V14.01,2013-10-13 09:24:00,
2013-10-13 04:29:00,46.8,42.2,30.30,SW,231,0.0,0.0,84,0.00,,CLR,0.00,VWS V14.01,2013-10-13 09:29:00,
2013-10-13 04:30:00,46.8,42.2,30.30,SW,231,0.0,0.0,84,0.00,,OVC018,0.00,VWS V14.01,2013-10-13 09:30:00,
2013-10-13 04:34:00,46.7,42.1,30.30,SW,231,0.0,0.0,84,0.00,,CLR,0.00,VWS V14.01,2013-10-13 09:34:00,
2013-10-13 04:39:00,46.7,42.4,30.30,SW,231,0.0,0.0,85,0.00,,CLR,0.00,VWS V14.01,2013-10-13 09:39:00,
2013-10-13 04:40:00,46.7,42.4,30.30,SW,231,0.0,0.0,85,0.00,,OVC018,0.00,VWS V14.01,2013-10-13 09:40:00,
2013-10-13 04:44:00,46.7,42.4,30.30,SW,231,0.0,0.0,85,0.00,,CLR,0.00,VWS V14.01,2013-10-13 09:44:00,
2013-10-13 04:50:00,46.8,42.8,30.30,SW,231,0.0,0.0,86,0.00,,CLR,0.00,VWS V14.01,2013-10-13 09:50:00,
2013-10-13 04:55:00,46.7,42.7,30.31,SW,231,0.0,0.0,86,0.00,,CLR,0.00,VWS V14.01,2013-10-13 09:55:00,
2013-10-13 05:00:00,46.4,42.5,30.31,SW,231,0.0,0.0,86,0.00,,CLR,0.00,VWS V14.01,2013-10-13 10:00:00,
2013-10-13 05:05:00,46.3,42.3,30.31,SW,231,0.0,0.0,86,0.00,,CLR,0.00,VWS V14.01,2013-10-13 10:05:00,
2013-10-13 05:10:00,46.3,42.7,30.31,SW,231,0.0,0.0,87,0.00,,CLR,0.00,VWS V14.01,2013-10-13 10:10:00,
2013-10-13 05:15:00,46.4,42.8,30.32,SW,231,0.0,0.0,87,0.00,,CLR,0.00,VWS V14.01,2013-10-13 10:15:00,
2013-10-13 05:20:00,46.4,43.0,30.32,SW,231,0.0,0.0,88,0.00,,CLR,0.00,VWS V14.01,2013-10-13 10:20:00,
2013-10-13 05:25:00,46.3,43.0,30.32,SW,231,0.0,0.0,88,0.00,,CLR,0.00,VWS V14.01,2013-10-13 10:25:00,
2013-10-13 05:30:00,46.3,43.0,30.32,SW,231,0.0,0.0,88,0.00,,CLR,0.00,VWS V14.01,2013-10-13 10:30:00,
2013-10-13 05:35:00,46.2,42.8,30.32,SW,231,0.0,0.0,88,0.00,,CLR,0.00,VWS V14.01,2013-10-13 10:35:00,
2013-10-13 05:40:00,46.3,43.2,30.32,SW,231,0.0,0.0,89,0.00,,CLR,0.00,VWS V14.01,2013-10-13 10:40:00,
2013-10-13 05:45:00,46.2,42.8,30.33,SW,231,0.0,0.0,88,0.00,,CLR,0.00,VWS V14.01,2013-10-13 10:45:00,
2013-10-13 05:50:00,46.1,42.8,30.33,SW,231,0.0,0.0,88,0.00,,CLR,0.00,VWS V14.01,2013-10-13 10:50:00,
2013-10-13 05:55:00,46.0,43.0,30.33,SW,231,0.0,0.0,89,0.00,,CLR,0.00,VWS V14.01,2013-10-13 10:55:00,
2013-10-13 06:00:00,46.1,43.0,30.33,SW,231,0.0,0.0,89,0.00,,CLR,0.00,VWS V14.01,2013-10-13 11:00:00,
2013-10-13 06:05:00,46.1,43.0,30.33,SW,231,0.0,0.0,89,0.00,,CLR,0.00,VWS V14.01,2013-10-13 11:05:00,
2013-10-13 06:10:00,46.0,43.2,30.33,SW,231,0.0,0.0,90,0.00,,CLR,0.00,VWS V14.01,2013-10-13 11:10:00,
2013-10-13 06:16:00,46.0,43.2,30.33,SW,231,0.0,0.0,90,0.00,,CLR,0.00,VWS V14.01,2013-10-13 11:16:00,
2013-10-13 06:20:00,46.0,43.2,30.33,SW,231,0.0,0.0,90,0.00,,OVC018,0.00,VWS V14.01,2013-10-13 11:20:00,
2013-10-13 06:21:00,46.0,43.5,30.33,SW,231,0.0,0.0,91,0.00,,CLR,0.00,VWS V14.01,2013-10-13 11:21:00,
2013-10-13 06:26:00,46.0,43.5,30.34,SW,231,0.0,0.0,91,0.00,,CLR,0.00,VWS V14.01,2013-10-13 11:26:00,
2013-10-13 06:30:00,46.0,43.5,30.34,SW,231,0.0,0.0,91,0.00,,OVC018,0.00,VWS V14.01,2013-10-13 11:30:00,
2013-10-13 06:31:00,46.0,43.5,30.34,SW,231,0.0,0.0,91,0.00,,CLR,0.00,VWS V14.01,2013-10-13 11:31:00,
2013-10-13 06:36:00,46.0,43.5,30.34,SW,231,0.0,0.0,91,0.00,,CLR,0.00,VWS V14.01,2013-10-13 11:36:00,
2013-10-13 06:40:00,46.0,43.5,30.34,SW,231,0.0,0.0,91,0.00,,OVC018,0.00,VWS V14.01,2013-10-13 11:40:00,
2013-10-13 06:41:00,45.9,43.4,30.34,SW,233,0.0,0.0,91,0.00,,CLR,0.00,VWS V14.01,2013-10-13 11:41:00,
2013-10-13 06:46:00,46.0,43.2,30.35,SW,233,0.0,0.0,90,0.00,,CLR,0.00,VWS V14.01,2013-10-13 11:46:00,
2013-10-13 06:50:00,46.0,43.2,30.35,SW,233,0.0,0.0,90,0.00,,OVC018,0.00,VWS V14.01,2013-10-13 11:50:00,
2013-10-13 06:51:00,46.1,43.3,30.35,SW,233,0.0,0.0,90,0.00,,CLR,0.00,VWS V14.01,2013-10-13 11:51:00,
2013-10-13 06:56:00,46.1,43.3,30.35,SW,233,0.0,0.0,90,0.00,,CLR,0.00,VWS V14.01,2013-10-13 11:56:00,
2013-10-13 07:00:00,46.0,43.0,30.35,SW,233,0.0,0.0,89,0.00,,OVC018,0.00,VWS V14.01,2013-10-13 12:00:00,
2013-10-13 07:01:00,45.9,42.5,30.35,SW,233,0.0,0.0,88,0.00,,CLR,0.00,VWS V14.01,2013-10-13 12:01:00,
2013-10-13 07:06:00,45.8,42.2,30.35,SW,233,0.0,0.0,87,0.00,,CLR,0.00,VWS V14.01,2013-10-13 12:06:00,
2013-10-13 07:10:00,45.9,42.3,30.35,SW,233,0.0,0.0,87,0.00,,OVC018,0.00,VWS V14.01,2013-10-13 12:10:00,
2013-10-13 07:11:00,45.9,42.0,30.35,SW,233,0.0,0.0,86,0.00,,CLR,0.00,VWS V14.01,2013-10-13 12:11:00,
2013-10-13 07:16:00,46.0,42.3,30.35,SW,233,0.0,0.0,87,0.00,,CLR,0.00,VWS V14.01,2013-10-13 12:16:00,
2013-10-13 07:20:00,45.9,42.0,30.35,SW,233,0.0,0.0,86,0.00,,OVC018,0.00,VWS V14.01,2013-10-13 12:20:00,
2013-10-13 07:21:00,45.8,41.5,30.35,SW,233,0.0,0.0,85,0.00,,CLR,0.00,VWS V14.01,2013-10-13 12:21:00,
2013-10-13 07:26:00,45.9,41.3,30.35,SW,233,0.0,0.0,84,0.00,,CLR,0.00,VWS V14.01,2013-10-13 12:26:00,
2013-10-13 07:30:00,45.9,41.3,30.35,SW,233,0.0,0.0,84,0.00,,OVC018,0.00,VWS V14.01,2013-10-13 12:30:00,
2013-10-13 07:31:00,46.0,41.1,30.35,SW,233,0.0,0.0,83,0.00,,CLR,0.00,VWS V14.01,2013-10-13 12:31:00,
2013-10-13 07:36:00,46.1,41.2,30.35,SW,233,0.0,0.0,83,0.00,,CLR,0.00,VWS V14.01,2013-10-13 12:36:00,
2013-10-13 07:40:00,46.1,41.2,30.35,SW,233,0.0,0.0,83,0.00,,OVC018,0.00,VWS V14.01,2013-10-13 12:40:00,
2013-10-13 07:41:00,46.3,41.4,30.36,SW,233,0.0,0.0,83,0.00,,CLR,0.00,VWS V14.01,2013-10-13 12:41:00,
2013-10-13 07:46:00,46.6,41.7,30.36,SW,233,0.0,0.0,83,0.00,,CLR,0.00,VWS V14.01,2013-10-13 12:46:00,
2013-10-13 07:50:00,46.7,41.8,30.36,SW,233,0.0,0.0,83,0.00,,OVC018,0.00,VWS V14.01,2013-10-13 12:50:00,
2013-10-13 07:51:00,47.1,41.9,30.36,SW,233,0.0,0.0,82,0.00,,CLR,0.00,VWS V14.01,2013-10-13 12:51:00,
2013-10-13 07:57:00,47.6,41.8,30.37,SW,233,0.0,0.0,80,0.00,,CLR,0.00,VWS V14.01,2013-10-13 12:57:00,
2013-10-13 08:00:00,47.6,41.8,30.37,SW,233,0.0,0.0,80,0.00,,OVC018,0.00,VWS V14.01,2013-10-13 13:00:00,
2013-10-13 08:02:00,48.1,41.9,30.37,SW,233,0.0,0.0,79,0.00,,CLR,0.00,VWS V14.01,2013-10-13 13:02:00,
2013-10-13 08:07:00,48.5,42.0,30.37,WNW,283,0.0,0.0,78,0.00,,CLR,0.00,VWS V14.01,2013-10-13 13:07:00,
2013-10-13 08:10:00,48.5,42.0,30.37,WNW,283,0.0,0.0,78,0.00,,OVC018,0.00,VWS V14.01,2013-10-13 13:10:00,
2013-10-13 08:12:00,48.8,42.3,30.38,WNW,288,0.0,0.0,78,0.00,,CLR,0.00,VWS V14.01,2013-10-13 13:12:00,
2013-10-13 08:17:00,49.3,42.4,30.38,NE,34,0.0,0.0,77,0.00,,CLR,0.00,VWS V14.01,2013-10-13 13:17:00,
2013-10-13 08:20:00,49.4,42.5,30.38,NE,34,0.0,0.0,77,0.00,,OVC018,0.00,VWS V14.01,2013-10-13 13:20:00,
2013-10-13 08:22:00,49.7,42.5,30.38,NNE,13,0.0,0.0,76,0.00,,CLR,0.00,VWS V14.01,2013-10-13 13:22:00,
2013-10-13 08:27:00,50.1,42.5,30.38,North,353,0.0,0.0,75,0.00,,CLR,0.00,VWS V14.01,2013-10-13 13:27:00,
2013-10-13 08:30:00,50.1,42.5,30.38,North,353,0.0,0.0,75,0.00,,OVC018,0.00,VWS V14.01,2013-10-13 13:30:00,
2013-10-13 08:32:00,50.3,42.3,30.39,North,353,0.0,0.0,74,0.00,,CLR,0.00,VWS V14.01,2013-10-13 13:32:00,
2013-10-13 08:37:00,50.7,42.4,30.39,North,353,0.0,0.0,73,0.00,,CLR,0.00,VWS V14.01,2013-10-13 13:37:00,
2013-10-13 08:40:00,50.7,42.4,30.39,North,353,0.0,0.0,73,0.00,,OVC018,0.00,VWS V14.01,2013-10-13 13:40:00,
2013-10-13 08:42:00,51.3,42.2,30.39,NNE,30,1.0,2.0,71,0.00,,CLR,0.00,VWS V14.01,2013-10-13 13:42:00,
2013-10-13 08:47:00,51.8,42.3,30.39,NNE,27,1.0,2.0,70,0.00,,CLR,0.00,VWS V14.01,2013-10-13 13:47:00,
2013-10-13 08:50:00,51.9,42.4,30.39,NNE,27,1.0,2.0,70,0.00,,OVC018,0.00,VWS V14.01,2013-10-13 13:50:00,
2013-10-13 08:52:00,52.2,42.3,30.40,NNE,25,2.0,2.0,69,0.00,,CLR,0.00,VWS V14.01,2013-10-13 13:52:00,
2013-10-13 08:57:00,52.6,42.3,30.40,NE,35,0.0,3.0,68,0.00,,CLR,0.00,VWS V14.01,2013-10-13 13:57:00,
2013-10-13 09:00:00,52.6,42.3,30.40,NNE,32,1.0,3.0,68,0.00,,OVC018,0.00,VWS V14.01,2013-10-13 14:00:00,
2013-10-13 09:02:00,53.1,43.2,30.40,NNE,23,0.0,2.0,69,0.00,,CLR,0.00,VWS V14.01,2013-10-13 14:02:00,
2013-10-13 09:07:00,53.4,43.5,30.40,NNE,23,0.0,3.0,69,0.00,,CLR,0.00,VWS V14.01,2013-10-13 14:07:00,
2013-10-13 09:10:00,53.4,43.5,30.40,NNE,23,1.0,3.0,69,0.00,,OVC018,0.00,VWS V14.01,2013-10-13 14:10:00,
2013-10-13 09:13:00,53.8,43.5,30.40,NNE,20,0.0,2.0,68,0.00,,CLR,0.00,VWS V14.01,2013-10-13 14:13:00,
2013-10-13 09:18:00,54.2,43.5,30.41,NNE,15,1.0,2.0,67,0.00,,CLR,0.00,VWS V14.01,2013-10-13 14:18:00,
2013-10-13 09:20:00,54.2,43.5,30.41,NNE,15,1.0,2.0,67,0.00,,OVC018,0.00,VWS V14.01,2013-10-13 14:20:00,
2013-10-13 09:23:00,54.6,43.9,30.41,NNE,32,0.0,2.0,67,0.00,,CLR,0.00,VWS V14.01,2013-10-13 14:23:00,
2013-10-13 09:28:00,55.0,43.1,30.41,NE,41,0.0,0.0,64,0.00,,CLR,0.00,VWS V14.01,2013-10-13 14:28:00,
2013-10-13 09:30:00,55.0,43.1,30.41,NE,41,0.0,2.0,64,0.00,,OVC018,0.00,VWS V14.01,2013-10-13 14:30:00,
2013-10-13 09:33:00,55.5,43.1,30.41,NNW,341,2.0,2.0,63,0.00,,CLR,0.00,VWS V14.01,2013-10-13 14:33:00,
2013-10-13 09:38:00,55.8,43.8,30.41,NNE,25,2.0,2.0,64,0.00,,CLR,0.00,VWS V14.01,2013-10-13 14:38:00,
2013-10-13 09:40:00,55.7,43.7,30.41,NNE,25,0.0,2.0,64,0.00,,OVC018,0.00,VWS V14.01,2013-10-13 14:40:00,
2013-10-13 09:43:00,56.2,44.2,30.41,North,357,0.0,2.0,64,0.00,,CLR,0.00,VWS V14.01,2013-10-13 14:43:00,
2013-10-13 09:48:00,56.7,44.7,30.41,NNE,25,3.0,3.0,64,0.00,,CLR,0.00,VWS V14.01,2013-10-13 14:48:00,
2013-10-13 09:50:00,56.6,44.2,30.41,NE,34,0.0,2.0,63,0.00,,OVC018,0.00,VWS V14.01,2013-10-13 14:50:00,
2013-10-13 09:53:00,57.1,45.0,30.41,NNE,30,0.0,3.0,64,0.00,,CLR,0.00,VWS V14.01,2013-10-13 14:53:00,
2013-10-13 09:58:00,57.6,45.1,30.41,East,82,3.0,4.0,63,0.00,,CLR,0.00,VWS V14.01,2013-10-13 14:58:00,
2013-10-13 10:00:00,57.6,45.1,30.42,NE,53,0.0,4.0,63,0.00,,OVC018,0.00,VWS V14.01,2013-10-13 15:00:00,
2013-10-13 10:03:00,58.0,45.5,30.42,NE,34,2.0,4.0,63,0.00,,CLR,0.00,VWS V14.01,2013-10-13 15:03:00,
2013-10-13 10:08:00,58.5,45.5,30.42,North,4,0.0,0.0,62,0.00,,CLR,0.00,VWS V14.01,2013-10-13 15:08:00,
2013-10-13 10:10:00,58.4,45.0,30.42,NE,37,0.0,4.0,61,0.00,,OVC018,0.00,VWS V14.01,2013-10-13 15:10:00,
2013-10-13 10:14:00,59.0,45.2,30.42,NNE,32,0.0,2.0,60,0.00,,CLR,0.00,VWS V14.01,2013-10-13 15:14:00,
2013-10-13 10:19:00,59.5,46.1,30.42,ENE,69,0.0,0.0,61,0.00,,CLR,0.00,VWS V14.01,2013-10-13 15:19:00,
2013-10-13 10:20:00,59.3,45.4,30.42,NNE,25,0.0,2.0,60,0.00,,OVC018,0.00,VWS V14.01,2013-10-13 15:20:00,
2013-10-13 10:24:00,59.6,44.8,30.42,NNW,338,1.0,3.0,58,0.00,,CLR,0.00,VWS V14.01,2013-10-13 15:24:00,
2013-10-13 10:29:00,59.7,44.9,30.42,North,4,1.0,1.0,58,0.00,,CLR,0.00,VWS V14.01,2013-10-13 15:29:00,
2013-10-13 10:30:00,59.7,44.9,30.42,North,1,1.0,3.0,58,0.00,,OVC018,0.00,VWS V14.01,2013-10-13 15:30:00,
2013-10-13 10:34:00,59.9,44.2,30.42,North,1,0.0,3.0,56,0.00,,CLR,0.00,VWS V14.01,2013-10-13 15:34:00,
2013-10-13 10:39:00,60.2,45.4,30.42,NNE,25,0.0,3.0,58,0.00,,CLR,0.00,VWS V14.01,2013-10-13 15:39:00,
2013-10-13 10:40:00,60.1,44.8,30.42,NNE,25,1.0,3.0,57,0.00,,OVC018,0.00,VWS V14.01,2013-10-13 15:40:00,
2013-10-13 10:44:00,60.7,45.8,30.42,NNW,346,1.0,3.0,58,0.00,,CLR,0.00,VWS V14.01,2013-10-13 15:44:00,
2013-10-13 10:49:00,61.0,46.1,30.42,North,355,0.0,1.0,58,0.00,,CLR,0.00,VWS V14.01,2013-10-13 15:49:00,
2013-10-13 10:50:00,60.9,45.1,30.42,ENE,73,1.0,3.0,56,0.00,,OVC018,0.00,VWS V14.01,2013-10-13 15:50:00,
2013-10-13 10:54:00,61.2,44.9,30.42,NW,316,2.0,3.0,55,0.00,,CLR,0.00,VWS V14.01,2013-10-13 15:54:00,
2013-10-13 10:59:00,61.1,45.3,30.42,NE,45,0.0,1.0,56,0.00,,CLR,0.00,VWS V14.01,2013-10-13 15:59:00,
2013-10-13 11:00:00,61.1,44.8,30.42,North,359,1.0,3.0,55,0.00,,OVC018,0.00,VWS V14.01,2013-10-13 16:00:00,
2013-10-13 11:04:00,61.7,45.4,30.42,NNE,26,0.0,2.0,55,0.00,,CLR,0.00,VWS V14.01,2013-10-13 16:04:00,
2013-10-13 11:09:00,62.1,44.8,30.42,NNE,27,0.0,0.0,53,0.00,,CLR,0.00,VWS V14.01,2013-10-13 16:09:00,
2013-10-13 11:10:00,62.0,44.7,30.42,NE,50,0.0,2.0,53,0.00,,OVC018,0.00,VWS V14.01,2013-10-13 16:10:00,
2013-10-13 11:14:00,62.4,44.6,30.42,North,353,0.0,0.0,52,0.00,,CLR,0.00,VWS V14.01,2013-10-13 16:14:00,
2013-10-13 11:19:00,62.7,44.3,30.42,North,349,0.0,0.0,51,0.00,,CLR,0.00,VWS V14.01,2013-10-13 16:19:00,
2013-10-13 11:20:00,62.6,45.2,30.42,WNW,295,0.0,0.0,53,0.00,,OVC018,0.00,VWS V14.01,2013-10-13 16:20:00,
2013-10-13 11:24:00,62.9,44.5,30.42,North,9,1.0,2.0,51,0.00,,CLR,0.00,VWS V14.01,2013-10-13 16:24:00,
2013-10-13 11:29:00,63.2,44.3,30.42,WNW,287,1.0,3.0,50,0.00,,CLR,0.00,VWS V14.01,2013-10-13 16:29:00,
2013-10-13 11:30:00,63.0,43.6,30.42,NE,38,0.0,2.0,49,0.00,,OVC018,0.00,VWS V14.01,2013-10-13 16:30:00,
2013-10-13 11:34:00,63.3,42.2,30.42,NE,46,0.0,3.0,46,0.00,,CLR,0.00,VWS V14.01,2013-10-13 16:34:00,
2013-10-13 11:40:00,63.6,42.5,30.42,NNE,27,0.0,1.0,46,0.00,,CLR,0.00,VWS V14.01,2013-10-13 16:40:00,
2013-10-13 11:45:00,63.7,42.0,30.42,ENE,68,0.0,4.0,45,0.00,,CLR,0.00,VWS V14.01,2013-10-13 16:45:00,
2013-10-13 11:50:00,63.9,43.8,30.42,North,4,1.0,2.0,48,0.00,,CLR,0.00,VWS V14.01,2013-10-13 16:50:00,
2013-10-13 11:55:00,64.4,41.4,30.42,NW,308,2.0,2.0,43,0.00,,CLR,0.00,VWS V14.01,2013-10-13 16:55:00,
2013-10-13 12:00:00,64.7,37.8,30.42,NW,309,1.0,3.0,37,0.00,,CLR,0.00,VWS V14.01,2013-10-13 17:00:00,
2013-10-13 12:05:00,64.8,39.3,30.42,NE,43,0.0,3.0,39,0.00,,CLR,0.00,VWS V14.01,2013-10-13 17:05:00,
2013-10-13 12:10:00,64.8,38.6,30.42,ENE,57,0.0,5.0,38,0.00,,CLR,0.00,VWS V14.01,2013-10-13 17:10:00,
2013-10-13 12:15:00,65.1,40.2,30.42,NW,312,1.0,5.0,40,0.00,,CLR,0.00,VWS V14.01,2013-10-13 17:15:00,
2013-10-13 12:20:00,65.2,41.5,30.42,West,276,0.0,1.0,42,0.00,,CLR,0.00,VWS V14.01,2013-10-13 17:20:00,
2013-10-13 12:25:00,65.4,39.8,30.42,ENE,74,1.0,3.0,39,0.00,,CLR,0.00,VWS V14.01,2013-10-13 17:25:00,
2013-10-13 12:30:00,65.4,39.8,30.42,East,82,1.0,3.0,39,0.00,,CLR,0.00,VWS V14.01,2013-10-13 17:30:00,
2013-10-13 12:35:00,64.9,40.7,30.42,ESE,108,2.0,5.0,41,0.00,,CLR,0.00,VWS V14.01,2013-10-13 17:35:00,
2013-10-13 12:40:00,64.7,40.5,30.41,WNW,297,1.0,3.0,41,0.00,,CLR,0.00,VWS V14.01,2013-10-13 17:40:00,
2013-10-13 12:45:00,65.0,40.8,30.41,North,4,1.0,5.0,41,0.00,,CLR,0.00,VWS V14.01,2013-10-13 17:45:00,
2013-10-13 12:50:00,65.4,39.8,30.40,NW,320,0.0,2.0,39,0.00,,CLR,0.00,VWS V14.01,2013-10-13 17:50:00,
2013-10-13 12:55:00,65.6,38.0,30.40,WSW,242,3.0,5.0,36,0.00,,CLR,0.00,VWS V14.01,2013-10-13 17:55:00,
2013-10-13 13:00:00,65.5,37.9,30.40,WNW,302,2.0,3.0,36,0.00,,CLR,0.00,VWS V14.01,2013-10-13 18:00:00,
2013-10-13 13:05:00,65.8,37.4,30.40,NNE,23,0.0,3.0,35,0.00,,CLR,0.00,VWS V14.01,2013-10-13 18:05:00,
2013-10-13 13:10:00,66.0,36.8,30.40,NW,316,0.0,5.0,34,0.00,,CLR,0.00,VWS V14.01,2013-10-13 18:10:00,
2013-10-13 13:15:00,66.4,38.7,30.40,WNW,293,2.0,5.0,36,0.00,,CLR,0.00,VWS V14.01,2013-10-13 18:15:00,
2013-10-13 13:20:00,66.4,37.2,30.40,NW,316,2.0,5.0,34,0.00,,OVC018,0.00,VWS V14.01,2013-10-13 18:20:00,
2013-10-13 13:21:00,66.6,37.4,30.40,North,1,0.0,2.0,34,0.00,,CLR,0.00,VWS V14.01,2013-10-13 18:21:00,
2013-10-13 13:26:00,66.9,39.1,30.40,NE,36,2.0,3.0,36,0.00,,CLR,0.00,VWS V14.01,2013-10-13 18:26:00,
2013-10-13 13:30:00,66.9,36.9,30.40,North,6,1.0,3.0,33,0.00,,OVC018,0.00,VWS V14.01,2013-10-13 18:30:00,
2013-10-13 13:31:00,66.7,35.9,30.39,NW,324,1.0,3.0,32,0.00,,CLR,0.00,VWS V14.01,2013-10-13 18:31:00,
2013-10-13 13:36:00,66.4,36.5,30.39,East,81,2.0,5.0,33,0.00,,CLR,0.00,VWS V14.01,2013-10-13 18:36:00,
2013-10-13 13:40:00,66.4,37.9,30.39,WNW,285,2.0,5.0,35,0.00,,OVC018,0.00,VWS V14.01,2013-10-13 18:40:00,
2013-10-13 13:41:00,66.4,35.7,30.39,NNW,327,0.0,3.0,32,0.00,,CLR,0.00,VWS V14.01,2013-10-13 18:41:00,
2013-10-13 13:46:00,66.6,37.4,30.39,West,259,0.0,3.0,34,0.00,,CLR,0.00,VWS V14.01,2013-10-13 18:46:00,
2013-10-13 13:50:00,66.7,37.5,30.39,WSW,257,3.0,4.0,34,0.00,,OVC018,0.00,VWS V14.01,2013-10-13 18:50:00,
2013-10-13 13:51:00,66.6,37.4,30.39,NNW,329,1.0,3.0,34,0.00,,CLR,0.00,VWS V14.01,2013-10-13 18:51:00,
2013-10-13 13:56:00,66.7,36.7,30.38,ENE,61,0.0,3.0,33,0.00,,CLR,0.00,VWS V14.01,2013-10-13 18:56:00,
2013-10-13 14:00:00,66.8,36.8,30.38,NW,313,0.0,3.0,33,0.00,,OVC018,0.00,VWS V14.01,2013-10-13 19:00:00,
2013-10-13 14:01:00,67.0,38.5,30.38,NNE,19,0.0,0.0,35,0.00,,CLR,0.00,VWS V14.01,2013-10-13 19:01:00,
2013-10-13 14:06:00,67.4,35.7,30.38,NW,316,1.0,3.0,31,0.00,,CLR,0.00,VWS V14.01,2013-10-13 19:06:00,
2013-10-13 14:10:00,67.3,35.7,30.38,NW,315,0.0,3.0,31,0.00,,OVC018,0.00,VWS V14.01,2013-10-13 19:10:00,
2013-10-13 14:11:00,67.2,37.2,30.38,North,6,0.0,2.0,33,0.00,,CLR,0.00,VWS V14.01,2013-10-13 19:11:00,
2013-10-13 14:16:00,67.3,38.0,30.38,NNW,346,1.0,3.0,34,0.00,,CLR,0.00,VWS V14.01,2013-10-13 19:16:00,
2013-10-13 14:20:00,67.3,36.5,30.38,NW,315,2.0,3.0,32,0.00,,OVC018,0.00,VWS V14.01,2013-10-13 19:20:00,
2013-10-13 14:21:00,67.0,36.2,30.38,WNW,295,3.0,4.0,32,0.00,,CLR,0.00,VWS V14.01,2013-10-13 19:21:00,
2013-10-13 14:27:00,66.8,36.8,30.38,NE,41,1.0,4.0,33,0.00,,CLR,0.00,VWS V14.01,2013-10-13 19:27:00,
2013-10-13 14:30:00,66.9,38.4,30.38,NE,39,1.0,4.0,35,0.00,,OVC018,0.00,VWS V14.01,2013-10-13 19:30:00,
2013-10-13 14:32:00,66.9,36.1,30.38,ENE,57,1.0,2.0,32,0.00,,CLR,0.00,VWS V14.01,2013-10-13 19:32:00,
2013-10-13 14:37:00,66.9,36.1,30.37,NW,305,0.0,2.0,32,0.00,,CLR,0.00,VWS V14.01,2013-10-13 19:37:00,
2013-10-13 14:40:00,67.0,36.2,30.37,NNE,25,0.0,2.0,32,0.00,,OVC018,0.00,VWS V14.01,2013-10-13 19:40:00,
2013-10-13 14:42:00,67.0,35.4,30.37,NNW,335,1.0,4.0,31,0.00,,CLR,0.00,VWS V14.01,2013-10-13 19:42:00,
2013-10-13 14:47:00,66.9,35.3,30.37,ENE,65,1.0,4.0,31,0.00,,CLR,0.00,VWS V14.01,2013-10-13 19:47:00,
2013-10-13 14:50:00,66.9,34.5,30.37,ENE,65,1.0,4.0,30,0.00,,OVC018,0.00,VWS V14.01,2013-10-13 19:50:00,
2013-10-13 14:53:00,66.7,36.7,30.37,NE,38,1.0,3.0,33,0.00,,CLR,0.00,VWS V14.01,2013-10-13 19:53:00,
2013-10-13 14:58:00,66.6,34.2,30.37,NW,322,1.0,4.0,30,0.00,,CLR,0.00,VWS V14.01,2013-10-13 19:58:00,
2013-10-13 15:00:00,66.6,34.2,30.37,NW,322,1.0,4.0,30,0.00,,OVC018,0.00,VWS V14.01,2013-10-13 20:00:00,
2013-10-13 15:03:00,66.7,34.3,30.37,North,352,2.0,2.0,30,0.00,,CLR,0.00,VWS V14.01,2013-10-13 20:03:00,
2013-10-13 15:08:00,66.5,32.4,30.37,NNE,25,0.0,0.0,28,0.00,,CLR,0.00,VWS V14.01,2013-10-13 20:08:00,
2013-10-13 15:10:00,66.5,32.4,30.37,NNE,25,0.0,2.0,28,0.00,,OVC018,0.00,VWS V14.01,2013-10-13 20:10:00,
2013-10-13 15:13:00,66.5,34.1,30.37,North,10,2.0,2.0,30,0.00,,CLR,0.00,VWS V14.01,2013-10-13 20:13:00,
2013-10-13 15:18:00,66.5,35.0,30.37,NW,313,0.0,1.0,31,0.00,,CLR,0.00,VWS V14.01,2013-10-13 20:18:00,
2013-10-13 15:20:00,67.3,36.5,30.38,NW,315,2.0,3.0,32,0.00,,CLR,0.00,VWS V14.01,2013-10-13 20:20:00,
2013-10-13 15:23:00,66.9,34.5,30.37,WSW,255,1.0,2.0,30,0.00,,CLR,0.00,VWS V14.01,2013-10-13 20:23:00,
2013-10-13 15:28:00,67.2,33.0,30.37,NW,314,1.0,1.0,28,0.00,,CLR,0.00,VWS V14.01,2013-10-13 20:28:00,
2013-10-13 15:30:00,67.2,33.9,30.37,NW,315,1.0,2.0,29,0.00,,OVC018,0.00,VWS V14.01,2013-10-13 20:30:00,
2013-10-13 15:33:00,67.1,34.7,30.37,WSW,249,1.0,2.0,30,0.00,,CLR,0.00,VWS V14.01,2013-10-13 20:33:00,
2013-10-13 15:38:00,66.7,35.1,30.37,North,11,1.0,2.0,31,0.00,,CLR,0.00,VWS V14.01,2013-10-13 20:38:00,
2013-10-13 15:40:00,66.7,34.3,30.37,North,1,0.0,2.0,30,0.00,,OVC018,0.00,VWS V14.01,2013-10-13 20:40:00,
2013-10-13 15:43:00,66.1,34.6,30.37,West,271,2.0,3.0,31,0.00,,CLR,0.00,VWS V14.01,2013-10-13 20:43:00,
2013-10-13 15:48:00,65.6,34.2,30.37,NNE,19,0.0,1.0,31,0.00,,CLR,0.00,VWS V14.01,2013-10-13 20:48:00,
2013-10-13 15:50:00,65.7,34.3,30.37,NNE,19,1.0,3.0,31,0.00,,OVC018,0.00,VWS V14.01,2013-10-13 20:50:00,
2013-10-13 15:53:00,65.4,34.0,30.37,NW,309,0.0,2.0,31,0.00,,CLR,0.00,VWS V14.01,2013-10-13 20:53:00,
2013-10-13 15:58:00,65.4,34.8,30.37,NE,54,0.0,0.0,32,0.00,,CLR,0.00,VWS V14.01,2013-10-13 20:58:00,
2013-10-13 16:00:00,65.4,34.8,30.37,NE,54,0.0,2.0,32,0.00,,OVC018,0.00,VWS V14.01,2013-10-13 21:00:00,
2013-10-13 16:03:00,65.2,34.6,30.37,ENE,61,1.0,1.0,32,0.00,,CLR,0.00,VWS V14.01,2013-10-13 21:03:00,
2013-10-13 16:08:00,64.8,33.5,30.37,NE,34,1.0,1.0,31,0.00,,CLR,0.00,VWS V14.01,2013-10-13 21:08:00,
2013-10-13 16:10:00,66.5,32.4,30.37,NNE,25,0.0,2.0,28,0.00,,CLR,0.00,VWS V14.01,2013-10-13 21:10:00,
2013-10-13 16:13:00,64.5,34.8,30.37,East,89,0.0,2.0,33,0.00,,CLR,0.00,VWS V14.01,2013-10-13 21:13:00,
2013-10-13 16:18:00,64.3,33.8,30.37,North,354,1.0,1.0,32,0.00,,CLR,0.00,VWS V14.01,2013-10-13 21:18:00,
2013-10-13 16:20:00,64.4,33.9,30.37,North,354,0.0,2.0,32,0.00,,OVC018,0.00,VWS V14.01,2013-10-13 21:20:00,
2013-10-13 16:23:00,64.1,33.7,30.37,NE,46,0.0,2.0,32,0.00,,CLR,0.00,VWS V14.01,2013-10-13 21:23:00,
2013-10-13 16:29:00,64.1,36.6,30.37,NE,45,0.0,0.0,36,0.00,,CLR,0.00,VWS V14.01,2013-10-13 21:29:00,
2013-10-13 16:30:00,64.1,35.9,30.37,NE,45,0.0,2.0,35,0.00,,OVC018,0.00,VWS V14.01,2013-10-13 21:30:00,
2013-10-13 16:34:00,63.9,35.0,30.37,NNE,13,1.0,1.0,34,0.00,,CLR,0.00,VWS V14.01,2013-10-13 21:34:00,
2013-10-13 16:39:00,63.7,37.0,30.37,NE,40,1.0,1.0,37,0.00,,CLR,0.00,VWS V14.01,2013-10-13 21:39:00,
2013-10-13 16:40:00,63.8,35.7,30.37,NE,38,0.0,2.0,35,0.00,,OVC018,0.00,VWS V14.01,2013-10-13 21:40:00,
2013-10-13 16:44:00,63.5,33.9,30.37,NNE,32,2.0,4.0,33,0.00,,CLR,0.00,VWS V14.01,2013-10-13 21:44:00,
2013-10-13 16:49:00,63.4,34.6,30.37,NNE,22,1.0,2.0,34,0.00,,CLR,0.00,VWS V14.01,2013-10-13 21:49:00,
2013-10-13 16:50:00,63.5,34.7,30.36,NNE,21,2.0,4.0,34,0.00,,OVC018,0.00,VWS V14.01,2013-10-13 21:50:00,
2013-10-13 16:54:00,63.4,36.0,30.36,NNE,21,0.0,2.0,36,0.00,,CLR,0.00,VWS V14.01,2013-10-13 21:54:00,
2013-10-13 16:59:00,63.3,35.2,30.36,East,87,0.0,1.0,35,0.00,,CLR,0.00,VWS V14.01,2013-10-13 21:59:00,
2013-10-13 17:00:00,65.4,34.8,30.37,NE,54,0.0,2.0,32,0.00,,CLR,0.00,VWS V14.01,2013-10-13 22:00:00,
2013-10-13 17:04:00,63.2,35.1,30.36,ENE,72,0.0,1.0,35,0.00,,CLR,0.00,VWS V14.01,2013-10-13 22:04:00,
2013-10-13 17:09:00,63.1,35.0,30.36,NE,53,0.0,1.0,35,0.00,,CLR,0.00,VWS V14.01,2013-10-13 22:09:00,
2013-10-13 17:10:00,63.1,35.0,30.36,NE,53,0.0,1.0,35,0.00,,OVC018,0.00,VWS V14.01,2013-10-13 22:10:00,
2013-10-13 17:14:00,62.9,35.6,30.36,NNE,28,0.0,2.0,36,0.00,,CLR,0.00,VWS V14.01,2013-10-13 22:14:00,
2013-10-13 17:20:00,62.6,36.0,30.36,NNE,29,0.0,1.0,37,0.00,,CLR,0.00,VWS V14.01,2013-10-13 22:20:00,
2013-10-13 17:25:00,62.4,35.1,30.36,NNE,29,0.0,1.0,36,0.00,,CLR,0.00,VWS V14.01,2013-10-13 22:25:00,
2013-10-13 17:30:00,62.2,36.3,30.36,NNE,28,0.0,0.0,38,0.00,,CLR,0.00,VWS V14.01,2013-10-13 22:30:00,
2013-10-13 17:35:00,61.9,37.3,30.36,NNE,29,0.0,0.0,40,0.00,,CLR,0.00,VWS V14.01,2013-10-13 22:35:00,
2013-10-13 17:40:00,61.5,36.3,30.36,NNE,29,0.0,0.0,39,0.00,,CLR,0.00,VWS V14.01,2013-10-13 22:40:00,
2013-10-13 17:45:00,61.4,36.2,30.36,NNE,29,0.0,0.0,39,0.00,,CLR,0.00,VWS V14.01,2013-10-13 22:45:00,
2013-10-13 17:50:00,61.4,36.2,30.36,NNE,29,0.0,0.0,39,0.00,,CLR,0.00,VWS V14.01,2013-10-13 22:50:00,
2013-10-13 17:55:00,61.2,36.1,30.36,NNE,28,0.0,0.0,39,0.00,,CLR,0.00,VWS V14.01,2013-10-13 22:55:00,
2013-10-13 18:00:00,61.0,36.5,30.36,NNE,29,0.0,0.0,40,0.00,,CLR,0.00,VWS V14.01,2013-10-13 23:00:00,
2013-10-13 18:05:00,60.5,37.3,30.36,NNE,28,0.0,0.0,42,0.00,,CLR,0.00,VWS V14.01,2013-10-13 23:05:00,
2013-10-13 18:10:00,59.9,37.4,30.36,NNE,29,0.0,0.0,43,0.00,,CLR,0.00,VWS V14.01,2013-10-13 23:10:00,
2013-10-13 18:15:00,59.3,38.5,30.36,NNE,29,0.0,0.0,46,0.00,,CLR,0.00,VWS V14.01,2013-10-13 23:15:00,
2013-10-13 18:20:00,58.9,38.7,30.37,NNE,29,0.0,0.0,47,0.00,,CLR,0.00,VWS V14.01,2013-10-13 23:20:00,
2013-10-13 18:25:00,58.3,38.7,30.37,NNE,29,0.0,0.0,48,0.00,,CLR,0.00,VWS V14.01,2013-10-13 23:25:00,
2013-10-13 18:30:00,57.6,38.1,30.37,NNE,29,0.0,0.0,48,0.00,,CLR,0.00,VWS V14.01,2013-10-13 23:30:00,
2013-10-13 18:35:00,56.9,39.0,30.37,NNE,29,0.0,0.0,51,0.00,,CLR,0.00,VWS V14.01,2013-10-13 23:35:00,
2013-10-13 18:40:00,56.4,40.0,30.37,NNE,29,0.0,0.0,54,0.00,,CLR,0.00,VWS V14.01,2013-10-13 23:40:00,
2013-10-13 18:45:00,56.0,38.2,30.37,NNE,29,0.0,0.0,51,0.00,,CLR,0.00,VWS V14.01,2013-10-13 23:45:00,
2013-10-13 18:50:00,55.9,41.3,30.38,NNE,29,0.0,0.0,58,0.00,,CLR,0.00,VWS V14.01,2013-10-13 23:50:00,
2013-10-13 18:56:00,55.5,41.9,30.38,NNE,29,0.0,0.0,60,0.00,,CLR,0.00,VWS V14.01,2013-10-13 23:56:00,
2013-10-13 19:00:00,55.3,41.2,30.37,NNE,29,0.0,0.0,59,0.00,,OVC018,0.00,VWS V14.01,2013-10-14 00:00:00,
2013-10-13 19:01:00,55.0,41.4,30.37,NNE,29,0.0,0.0,60,0.00,,CLR,0.00,VWS V14.01,2013-10-14 00:01:00,
2013-10-13 19:06:00,54.6,40.6,30.37,NNE,29,0.0,0.0,59,0.00,,CLR,0.00,VWS V14.01,2013-10-14 00:06:00,
2013-10-13 19:10:00,54.5,40.5,30.37,NNE,29,0.0,0.0,59,0.00,,OVC018,0.00,VWS V14.01,2013-10-14 00:10:00,
2013-10-13 19:11:00,54.6,38.3,30.38,NNE,29,0.0,0.0,54,0.00,,CLR,0.00,VWS V14.01,2013-10-14 00:11:00,
2013-10-13 19:16:00,55.2,39.8,30.38,NNE,29,0.0,0.0,56,0.00,,CLR,0.00,VWS V14.01,2013-10-14 00:16:00,
2013-10-13 19:20:00,55.3,41.7,30.38,NNE,28,0.0,0.0,60,0.00,,OVC018,0.00,VWS V14.01,2013-10-14 00:20:00,
2013-10-13 19:21:00,55.2,42.4,30.38,NNE,28,0.0,0.0,62,0.00,,CLR,0.00,VWS V14.01,2013-10-14 00:21:00,
2013-10-13 19:26:00,55.0,39.2,30.38,NNE,29,0.0,0.0,55,0.00,,CLR,0.00,VWS V14.01,2013-10-14 00:26:00,
2013-10-13 19:30:00,55.1,39.7,30.38,NNE,29,0.0,0.0,56,0.00,,OVC018,0.00,VWS V14.01,2013-10-14 00:30:00,
2013-10-13 19:31:00,55.1,41.0,30.38,NNE,29,0.0,0.0,59,0.00,,CLR,0.00,VWS V14.01,2013-10-14 00:31:00,
2013-10-13 19:36:00,54.8,39.9,30.38,NNE,29,0.0,0.0,57,0.00,,CLR,0.00,VWS V14.01,2013-10-14 00:36:00,
2013-10-13 19:40:00,54.8,39.9,30.38,NNE,29,0.0,0.0,57,0.00,,OVC018,0.00,VWS V14.01,2013-10-14 00:40:00,
2013-10-13 19:41:00,54.9,38.6,30.38,NNE,29,0.0,0.0,54,0.00,,CLR,0.00,VWS V14.01,2013-10-14 00:41:00,
2013-10-13 19:46:00,55.3,37.5,30.38,NNE,29,0.0,0.0,51,0.00,,CLR,0.00,VWS V14.01,2013-10-14 00:46:00,
2013-10-13 19:50:00,55.4,37.6,30.38,NNE,28,0.0,0.0,51,0.00,,OVC018,0.00,VWS V14.01,2013-10-14 00:50:00,
2013-10-13 19:51:00,55.6,37.8,30.38,NNE,29,0.0,0.0,51,0.00,,CLR,0.00,VWS V14.01,2013-10-14 00:51:00,
2013-10-13 19:56:00,55.8,37.5,30.38,NNE,29,0.0,0.0,50,0.00,,CLR,0.00,VWS V14.01,2013-10-14 00:56:00,
2013-10-13 20:00:00,55.9,37.5,30.38,NNE,29,0.0,0.0,50,0.00,,OVC018,0.00,VWS V14.01,2013-10-14 01:00:00,
2013-10-13 20:01:00,56.0,37.1,30.38,NNE,28,0.0,0.0,49,0.00,,CLR,0.00,VWS V14.01,2013-10-14 01:01:00,
2013-10-13 20:06:00,56.1,37.2,30.38,NNE,29,0.0,0.0,49,0.00,,CLR,0.00,VWS V14.01,2013-10-14 01:06:00,
2013-10-13 20:10:00,56.1,37.7,30.38,NNE,29,0.0,0.0,50,0.00,,OVC018,0.00,VWS V14.01,2013-10-14 01:10:00,
2013-10-13 20:11:00,56.0,38.6,30.38,NNE,29,0.0,0.0,52,0.00,,CLR,0.00,VWS V14.01,2013-10-14 01:11:00,
2013-10-13 20:16:00,56.0,37.1,30.38,NNE,29,0.0,0.0,49,0.00,,CLR,0.00,VWS V14.01,2013-10-14 01:16:00,
2013-10-13 20:20:00,56.0,37.1,30.38,NNE,29,0.0,0.0,49,0.00,,OVC018,0.00,VWS V14.01,2013-10-14 01:20:00,
2013-10-13 20:21:00,55.9,40.0,30.39,NNE,29,0.0,0.0,55,0.00,,CLR,0.00,VWS V14.01,2013-10-14 01:21:00,
2013-10-13 20:26:00,55.8,38.9,30.39,NNE,29,0.0,0.0,53,0.00,,CLR,0.00,VWS V14.01,2013-10-14 01:26:00,
2013-10-13 20:30:00,55.7,39.3,30.39,NNE,29,0.0,0.0,54,0.00,,OVC018,0.00,VWS V14.01,2013-10-14 01:30:00,
2013-10-13 20:32:00,55.5,37.2,30.39,NNE,28,0.0,0.0,50,0.00,,CLR,0.00,VWS V14.01,2013-10-14 01:32:00,
2013-10-13 20:37:00,55.7,36.8,30.39,NNE,29,0.0,0.0,49,0.00,,CLR,0.00,VWS V14.01,2013-10-14 01:37:00,
2013-10-13 20:40:00,55.8,36.9,30.39,NNE,29,0.0,0.0,49,0.00,,OVC018,0.00,VWS V14.01,2013-10-14 01:40:00,
2013-10-13 20:42:00,55.8,37.5,30.39,NNE,29,0.0,0.0,50,0.00,,CLR,0.00,VWS V14.01,2013-10-14 01:42:00,
2013-10-13 20:47:00,55.1,37.3,30.39,NNE,29,0.0,0.0,51,0.00,,CLR,0.00,VWS V14.01,2013-10-14 01:47:00,
2013-10-13 20:50:00,55.1,37.3,30.39,NNE,28,0.0,0.0,51,0.00,,OVC018,0.00,VWS V14.01,2013-10-14 01:50:00,
2013-10-13 20:52:00,54.9,38.1,30.39,NNE,29,0.0,0.0,53,0.00,,CLR,0.00,VWS V14.01,2013-10-14 01:52:00,
2013-10-13 20:57:00,54.2,38.4,30.39,NE,52,0.0,0.0,55,0.00,,CLR,0.00,VWS V14.01,2013-10-14 01:57:00,
2013-10-13 21:00:00,54.1,38.8,30.39,NE,53,0.0,0.0,56,0.00,,OVC018,0.00,VWS V14.01,2013-10-14 02:00:00,
2013-10-13 21:02:00,53.6,39.6,30.40,NE,53,0.0,0.0,59,0.00,,CLR,0.00,VWS V14.01,2013-10-14 02:02:00,
2013-10-13 21:07:00,53.1,39.2,30.40,NE,53,0.0,0.0,59,0.00,,CLR,0.00,VWS V14.01,2013-10-14 02:07:00,
2013-10-13 21:10:00,53.1,39.2,30.40,NE,52,0.0,0.0,59,0.00,,OVC018,0.00,VWS V14.01,2013-10-14 02:10:00,
2013-10-13 21:12:00,53.0,39.5,30.40,NE,53,0.0,0.0,60,0.00,,CLR,0.00,VWS V14.01,2013-10-14 02:12:00,
2013-10-13 21:17:00,52.7,38.8,30.40,NE,53,0.0,0.0,59,0.00,,CLR,0.00,VWS V14.01,2013-10-14 02:17:00,
2013-10-13 21:20:00,52.7,38.8,30.40,NE,52,0.0,0.0,59,0.00,,OVC018,0.00,VWS V14.01,2013-10-14 02:20:00,
2013-10-13 21:22:00,52.6,38.7,30.40,NE,52,0.0,0.0,59,0.00,,CLR,0.00,VWS V14.01,2013-10-14 02:22:00,
2013-10-13 21:27:00,52.7,38.8,30.41,NE,52,0.0,0.0,59,0.00,,CLR,0.00,VWS V14.01,2013-10-14 02:27:00,
2013-10-13 21:30:00,52.7,38.8,30.41,NE,52,0.0,0.0,59,0.00,,OVC018,0.00,VWS V14.01,2013-10-14 02:30:00,
2013-10-13 21:32:00,52.5,39.9,30.41,NE,52,0.0,0.0,62,0.00,,CLR,0.00,VWS V14.01,2013-10-14 02:32:00,
2013-10-13 21:37:00,52.4,39.4,30.41,NE,52,0.0,0.0,61,0.00,,CLR,0.00,VWS V14.01,2013-10-14 02:37:00,
2013-10-13 21:40:00,52.4,39.4,30.41,NE,53,0.0,0.0,61,0.00,,OVC018,0.00,VWS V14.01,2013-10-14 02:40:00,
2013-10-13 21:43:00,52.5,39.9,30.41,NE,52,0.0,0.0,62,0.00,,CLR,0.00,VWS V14.01,2013-10-14 02:43:00,
2013-10-13 21:48:00,52.2,39.6,30.42,NE,52,0.0,0.0,62,0.00,,CLR,0.00,VWS V14.01,2013-10-14 02:48:00,
2013-10-13 21:50:00,52.2,39.6,30.42,NE,52,0.0,0.0,62,0.00,,OVC018,0.00,VWS V14.01,2013-10-14 02:50:00,
2013-10-13 21:53:00,52.2,39.2,30.42,NE,52,0.0,0.0,61,0.00,,CLR,0.00,VWS V14.01,2013-10-14 02:53:00,
2013-10-13 21:58:00,52.3,39.7,30.42,NE,53,0.0,0.0,62,0.00,,CLR,0.00,VWS V14.01,2013-10-14 02:58:00,
2013-10-13 22:00:00,52.3,39.7,30.42,NE,53,0.0,0.0,62,0.00,,OVC018,0.00,VWS V14.01,2013-10-14 03:00:00,
2013-10-13 22:03:00,52.0,39.4,30.42,NE,53,0.0,0.0,62,0.00,,CLR,0.00,VWS V14.01,2013-10-14 03:03:00,
2013-10-13 22:08:00,51.8,40.4,30.42,NE,53,0.0,0.0,65,0.00,,CLR,0.00,VWS V14.01,2013-10-14 03:08:00,
2013-10-13 22:10:00,51.8,40.4,30.42,NE,53,0.0,0.0,65,0.00,,OVC018,0.00,VWS V14.01,2013-10-14 03:10:00,
2013-10-13 22:13:00,51.4,40.0,30.42,NNE,27,0.0,0.0,65,0.00,,CLR,0.00,VWS V14.01,2013-10-14 03:13:00,
2013-10-13 22:18:00,51.1,40.5,30.42,NNE,27,0.0,0.0,67,0.00,,CLR,0.00,VWS V14.01,2013-10-14 03:18:00,
2013-10-13 22:20:00,51.1,40.5,30.42,NNE,27,0.0,0.0,67,0.00,,OVC018,0.00,VWS V14.01,2013-10-14 03:20:00,
2013-10-13 22:23:00,50.8,40.2,30.42,NNE,27,0.0,0.0,67,0.00,,CLR,0.00,VWS V14.01,2013-10-14 03:23:00,
2013-10-13 22:28:00,51.1,40.5,30.42,NNE,27,0.0,0.0,67,0.00,,CLR,0.00,VWS V14.01,2013-10-14 03:28:00,
2013-10-13 22:30:00,51.1,40.5,30.42,NNE,27,0.0,0.0,67,0.00,,OVC018,0.00,VWS V14.01,2013-10-14 03:30:00,
2013-10-13 22:33:00,51.4,40.4,30.42,NNE,27,0.0,0.0,66,0.00,,CLR,0.00,VWS V14.01,2013-10-14 03:33:00,
2013-10-13 22:38:00,51.7,40.7,30.41,NNE,27,0.0,0.0,66,0.00,,CLR,0.00,VWS V14.01,2013-10-14 03:38:00,
2013-10-13 22:40:00,51.7,40.7,30.41,NNE,27,0.0,0.0,66,0.00,,OVC018,0.00,VWS V14.01,2013-10-14 03:40:00,
2013-10-13 22:43:00,51.8,40.8,30.41,NNE,27,0.0,0.0,66,0.00,,CLR,0.00,VWS V14.01,2013-10-14 03:43:00,
2013-10-13 22:48:00,51.9,40.9,30.41,NNE,27,0.0,0.0,66,0.00,,CLR,0.00,VWS V14.01,2013-10-14 03:48:00,
2013-10-13 22:50:00,51.9,40.9,30.41,NNE,27,0.0,0.0,66,0.00,,OVC018,0.00,VWS V14.01,2013-10-14 03:50:00,
2013-10-13 22:53:00,51.8,40.8,30.41,NNE,27,0.0,0.0,66,0.00,,CLR,0.00,VWS V14.01,2013-10-14 03:53:00,
2013-10-13 22:58:00,51.8,40.0,30.41,NNE,27,0.0,0.0,64,0.00,,CLR,0.00,VWS V14.01,2013-10-14 03:58:00,
2013-10-13 23:00:00,51.8,40.4,30.41,NNE,27,0.0,0.0,65,0.00,,OVC018,0.00,VWS V14.01,2013-10-14 04:00:00,
2013-10-13 23:01:00,51.9,40.1,30.41,NNE,27,0.0,0.0,64,0.00,,CLR,0.00,VWS V14.01,2013-10-14 04:01:00,
2013-10-13 23:02:00,51.8,40.0,30.40,NNE,27,0.0,0.0,64,0.00,,CLR,0.00,VWS V14.01,2013-10-14 04:02:00,
2013-10-13 23:04:00,51.8,40.0,30.40,NNE,27,0.0,0.0,64,0.00,,CLR,0.00,VWS V14.01,2013-10-14 04:04:00,
2013-10-13 23:05:00,51.8,40.0,30.40,NNE,27,0.0,0.0,64,0.00,,CLR,0.00,VWS V14.01,2013-10-14 04:05:00,
2013-10-13 23:10:00,51.7,39.5,30.40,NNE,27,0.0,0.0,63,0.00,,CLR,0.00,VWS V14.01,2013-10-14 04:10:00,
2013-10-13 23:15:00,51.6,39.0,30.40,NNE,27,0.0,0.0,62,0.00,,CLR,0.00,VWS V14.01,2013-10-14 04:15:00,
2013-10-13 23:20:00,51.6,38.6,30.40,NNE,27,0.0,0.0,61,0.00,,CLR,0.00,VWS V14.01,2013-10-14 04:20:00,
2013-10-13 23:25:00,51.6,38.2,30.40,NNE,27,0.0,0.0,60,0.00,,CLR,0.00,VWS V14.01,2013-10-14 04:25:00,
2013-10-13 23:30:00,51.7,38.3,30.40,NNE,27,0.0,0.0,60,0.00,,CLR,0.00,VWS V14.01,2013-10-14 04:30:00,
2013-10-13 23:35:00,51.7,38.3,30.40,NNE,27,0.0,0.0,60,0.00,,CLR,0.00,VWS V14.01,2013-10-14 04:35:00,
2013-10-13 23:40:00,51.5,38.1,30.40,NNE,27,0.0,0.0,60,0.00,,CLR,0.00,VWS V14.01,2013-10-14 04:40:00,
2013-10-13 23:45:00,51.2,37.8,30.40,ENE,58,0.0,0.0,60,0.00,,CLR,0.00,VWS V14.01,2013-10-14 04:45:00,
2013-10-13 23:50:00,51.0,37.6,30.40,ENE,58,0.0,0.0,60,0.00,,OVC018,0.00,VWS V14.01,2013-10-14 04:50:00,
2013-10-13 23:51:00,50.9,37.5,30.40,ENE,58,0.0,0.0,60,0.00,,CLR,0.00,VWS V14.01,2013-10-14 04:51:00,
2013-10-13 23:56:00,50.7,37.3,30.40,ENE,58,0.0,0.0,60,0.00,,CLR,0.00,VWS V14.01,2013-10-14 04:56:00,